Weather at Charlottetown (Queen Elizabeth Hospital) Heliport

Public forecast

Using degrees Celsius for public forecast. Weather courtesy of forecast.io.

Closest aviation weather report (METAR) to Charlottetown (Queen Elizabeth Hospital) Heliport

Report is more than 6 hours old.

Closest report is Charlottetown Airport, 2.3 nm (4.2 km) NNW.

2024/06/24 06:00 (retrieved 1 day ago)

CYYG 240600Z 24011G22KT 6SM -RA BR OVC010 20/19 A2943 RMK ST8 SLP968 DENSITY ALT 1400FT

Closest aviation forecast (TAF) to Charlottetown (Queen Elizabeth Hospital) Heliport

Forecast is more than 12 hours old.

Closest forecast is Charlottetown Airport, 2.3 nm (4.2 km) NNW.

2024/06/24 18:42 (retrieved 15 hours ago)

TAF CYYG 241740Z 2418/2506 34010KT 5SM -SHRA BR OVC008 TEMPO 2418/2424 P6SM NSW OVC010 FM250000 06006KT 6SM BR OVC004 TEMPO 2500/2505 1SM -DZ -RA BR FM250500 06008KT 2SM -SHRA BR OVC003 RMK NXT FCST BY 250000Z